< < Back
Terminal Aerodrome Forecast


Current Version              Previous Versions:   1  2  3  4  5  6  7  8  9  

Terminal Aerodrome Forecast

494
FTUS42 KMLB 271122
TAFMCO
TAF
KMCO 271122Z 2712/2812 06004KT P6SM FEW035 SCT070
     FM271500 07010G16KT P6SM SCT030
     FM280200 03003KT P6SM FEW020=



Latest METAR

227
SAUS70 KWBC 280200 RRE
MTRMCO
METAR KMCO 280153Z 05008KT 10SM CLR 24/19 A3001 RMK AO2 SLP159
T02440194


USA.gov is the U.S. government's official web portal to all federal, state and local government web resources and services.